createdAt,value
2023-02-03T00:00:09.630Z,5.40
2023-02-03T00:02:36.136Z,5.80
2023-02-03T00:05:03.215Z,5.33
2023-02-03T00:07:29.807Z,5.67
2023-02-03T00:09:56.670Z,5.70
2023-02-03T00:12:23.143Z,5.93
2023-02-03T00:14:49.567Z,5.97
2023-02-03T00:17:16.006Z,5.87
2023-02-03T00:19:42.522Z,6.67
2023-02-03T00:22:08.961Z,5.93
2023-02-03T00:24:35.446Z,8.37
2023-02-03T00:27:01.803Z,8.63
2023-02-03T00:29:28.231Z,9.20
2023-02-03T00:31:54.836Z,8.40
2023-02-03T00:34:21.335Z,10.03
2023-02-03T00:36:48.434Z,9.33
2023-02-03T00:39:15.464Z,9.37
2023-02-03T00:41:42.359Z,8.27
2023-02-03T00:44:08.767Z,10.17
2023-02-03T00:46:36.309Z,10.47
2023-02-03T00:49:03.700Z,9.23
2023-02-03T00:51:30.179Z,9.37
2023-02-03T00:53:56.626Z,9.67
2023-02-03T00:56:23.068Z,9.37
2023-02-03T00:58:49.555Z,10.17
2023-02-03T01:01:16.010Z,10.97
2023-02-03T01:03:42.454Z,10.50
2023-02-03T01:06:10.290Z,11.40
2023-02-03T01:08:36.637Z,11.00
2023-02-03T01:11:10.171Z,12.23
2023-02-03T01:13:37.029Z,11.77
2023-02-03T01:16:03.633Z,12.77
2023-02-03T01:18:30.077Z,12.70
2023-02-03T01:20:56.548Z,11.80
2023-02-03T01:23:22.979Z,12.27
2023-02-03T01:25:49.387Z,13.13
2023-02-03T01:28:15.893Z,12.10
2023-02-03T01:30:42.708Z,12.00
2023-02-03T01:33:09.314Z,12.07
2023-02-03T01:35:36.425Z,12.03
2023-02-03T01:38:02.938Z,11.70
2023-02-03T01:40:29.504Z,12.47
2023-02-03T01:42:56.068Z,11.53
2023-02-03T01:45:22.518Z,11.30
2023-02-03T01:47:50.984Z,10.67
2023-02-03T01:53:12.324Z,9.97
2023-02-03T01:55:41.234Z,10.77
2023-02-03T01:58:10.607Z,9.27
2023-02-03T02:03:09.158Z,10.27
2023-02-03T02:05:38.849Z,9.50
2023-02-03T02:08:06.676Z,9.47
2023-02-03T02:10:33.860Z,9.40
2023-02-03T02:13:01.448Z,9.43
2023-02-03T02:15:35.663Z,9.40
2023-02-03T02:18:04.869Z,6.93
2023-02-03T02:20:31.334Z,8.17
2023-02-03T02:23:21.171Z,8.20
2023-02-03T02:25:59.827Z,8.33
2023-02-03T02:28:26.211Z,8.27
2023-02-03T02:31:01.982Z,7.57
2023-02-03T02:33:34.751Z,6.93
2023-02-03T02:36:12.686Z,7.33
2023-02-03T02:38:45.356Z,7.43
2023-02-03T02:41:19.955Z,6.97
2023-02-03T02:43:59.922Z,7.00
2023-02-03T02:46:52.616Z,6.63
2023-02-03T02:49:30.171Z,7.80
2023-02-03T02:51:57.631Z,7.70
2023-02-03T02:54:26.686Z,7.43
2023-02-03T02:56:54.751Z,7.13
2023-02-03T02:59:21.229Z,6.93
2023-02-03T03:01:47.661Z,6.37
2023-02-03T03:04:15.382Z,6.50
2023-02-03T03:06:44.439Z,6.70
2023-02-03T03:09:10.772Z,5.70
2023-02-03T03:11:41.010Z,5.40
2023-02-03T03:14:10.242Z,5.80
2023-02-03T03:16:37.858Z,5.10
2023-02-03T03:19:07.004Z,5.87
2023-02-03T03:21:37.812Z,4.83
2023-02-03T03:24:07.161Z,5.03
2023-02-03T03:26:41.267Z,3.80
2023-02-03T03:29:12.108Z,4.20
2023-02-03T03:31:39.421Z,4.13
2023-02-03T03:34:06.010Z,3.90
2023-02-03T03:36:36.969Z,4.40
2023-02-03T03:39:12.432Z,3.30
2023-02-03T03:41:47.137Z,3.53
2023-02-03T03:44:14.750Z,3.77
2023-02-03T03:46:47.131Z,4.67
2023-02-03T03:49:13.801Z,3.70
2023-02-03T03:51:44.336Z,3.67
2023-02-03T03:54:12.952Z,3.50
2023-02-03T03:56:46.439Z,3.27
2023-02-03T03:59:14.106Z,3.37
2023-02-03T04:01:41.146Z,4.27
2023-02-03T04:04:09.708Z,3.40
2023-02-03T04:06:38.407Z,3.70
2023-02-03T04:09:05.592Z,3.70
2023-02-03T04:11:50.711Z,4.17
2023-02-03T04:14:17.138Z,3.93
2023-02-03T04:16:43.542Z,4.23
2023-02-03T04:19:09.983Z,4.00
2023-02-03T04:21:36.405Z,4.30
2023-02-03T04:24:02.925Z,5.07
2023-02-03T04:26:29.404Z,5.00
2023-02-03T04:28:55.741Z,5.20
2023-02-03T04:31:22.295Z,4.60
2023-02-03T04:33:48.707Z,4.70
2023-02-03T04:36:15.302Z,4.47
2023-02-03T04:38:41.685Z,4.73
2023-02-03T04:41:08.123Z,4.57
2023-02-03T04:43:34.538Z,5.53
2023-02-03T04:46:01.258Z,4.50
2023-02-03T04:48:27.717Z,4.37
2023-02-03T04:50:54.163Z,4.70
2023-02-03T04:53:20.533Z,5.00
2023-02-03T04:55:47.749Z,4.67
2023-02-03T04:58:14.397Z,6.07
2023-02-03T05:00:41.504Z,5.80
2023-02-03T05:03:08.070Z,5.93
2023-02-03T05:05:34.471Z,6.33
2023-02-03T05:08:00.813Z,6.10
2023-02-03T05:10:27.392Z,5.97
2023-02-03T05:12:53.928Z,6.37
2023-02-03T05:15:20.404Z,5.97
2023-02-03T05:17:46.820Z,7.27
2023-02-03T05:20:13.353Z,6.30
2023-02-03T05:22:39.930Z,7.07
2023-02-03T05:25:06.760Z,5.87
2023-02-03T05:27:33.209Z,6.83
2023-02-03T05:29:59.671Z,5.20
2023-02-03T05:32:26.446Z,5.10
2023-02-03T05:34:52.933Z,5.40
2023-02-03T05:37:19.379Z,5.60
2023-02-03T05:39:45.775Z,5.20
2023-02-03T05:42:12.157Z,6.13
2023-02-03T05:44:38.598Z,5.80
2023-02-03T05:47:04.975Z,5.77
2023-02-03T05:49:31.365Z,6.10
2023-02-03T05:51:57.809Z,5.10
2023-02-03T05:54:24.262Z,5.63
2023-02-03T05:56:50.700Z,5.47
2023-02-03T05:59:17.356Z,5.10
2023-02-03T06:01:43.754Z,5.90
2023-02-03T06:04:10.247Z,5.77
2023-02-03T06:06:36.893Z,6.53
2023-02-03T06:09:04.576Z,6.77
2023-02-03T06:11:31.722Z,5.63
2023-02-03T06:14:01.152Z,5.60
2023-02-03T06:16:28.117Z,5.87
2023-02-03T06:18:55.384Z,5.40
2023-02-03T06:21:22.478Z,4.83
2023-02-03T06:23:48.909Z,4.13
2023-02-03T06:26:15.303Z,4.27
2023-02-03T06:28:41.720Z,4.70
2023-02-03T06:31:08.274Z,4.63
2023-02-03T06:33:35.320Z,5.23
2023-02-03T06:36:01.860Z,5.30
2023-02-03T06:38:28.313Z,8.23
2023-02-03T06:40:54.655Z,5.53
2023-02-03T06:43:21.027Z,5.47
2023-02-03T06:45:47.571Z,6.53
2023-02-03T06:48:14.401Z,6.20
2023-02-03T06:50:41.396Z,6.27
2023-02-03T06:53:07.803Z,6.43
2023-02-03T06:55:34.229Z,5.37
2023-02-03T06:58:00.792Z,6.87
2023-02-03T07:00:28.246Z,6.93
2023-02-03T07:02:55.687Z,6.63
2023-02-03T07:05:22.733Z,7.67
2023-02-03T07:07:49.513Z,8.07
2023-02-03T07:10:16.231Z,6.83
2023-02-03T07:12:42.876Z,5.90
2023-02-03T07:15:09.613Z,5.60
2023-02-03T07:17:35.993Z,15.70
2023-02-03T07:20:02.462Z,5.57
2023-02-03T07:22:29.021Z,6.17
2023-02-03T07:24:55.488Z,5.67
2023-02-03T07:27:21.899Z,5.50
2023-02-03T07:29:48.368Z,5.80
2023-02-03T07:32:15.395Z,5.07
2023-02-03T07:34:41.949Z,6.43
2023-02-03T07:37:08.342Z,6.63
2023-02-03T07:39:34.775Z,5.90
2023-02-03T07:42:01.146Z,4.80
2023-02-03T07:44:27.700Z,5.53
2023-02-03T07:46:54.163Z,4.80
2023-02-03T07:49:20.549Z,4.37
2023-02-03T07:51:47.054Z,4.40
2023-02-03T07:54:16.344Z,5.37
2023-02-03T07:56:43.277Z,5.90
2023-02-03T07:59:09.724Z,4.97
2023-02-03T08:01:36.108Z,4.40
2023-02-03T08:04:05.392Z,5.57
2023-02-03T08:06:31.896Z,5.63
2023-02-03T08:08:58.299Z,5.27
2023-02-03T08:11:24.684Z,5.20
2023-02-03T08:13:51.418Z,4.67
2023-02-03T08:16:17.966Z,4.67
2023-02-03T08:18:44.398Z,5.10
2023-02-03T08:21:11.327Z,4.73
2023-02-03T08:23:37.800Z,5.63
2023-02-03T08:26:04.507Z,4.30
2023-02-03T08:28:31.008Z,5.30
2023-02-03T08:30:57.792Z,5.37
2023-02-03T08:33:24.378Z,4.53
2023-02-03T08:35:51.124Z,5.47
2023-02-03T08:38:17.969Z,4.90
2023-02-03T08:40:44.326Z,4.50
2023-02-03T08:43:11.383Z,5.07
2023-02-03T08:45:39.058Z,5.33
2023-02-03T08:48:05.519Z,6.17
2023-02-03T08:50:32.027Z,7.13
2023-02-03T08:52:58.537Z,7.00
2023-02-03T08:55:25.013Z,6.87
2023-02-03T08:57:51.421Z,6.97
2023-02-03T09:00:17.969Z,6.20
2023-02-03T09:02:44.752Z,6.90
2023-02-03T09:05:11.432Z,8.23
2023-02-03T09:07:38.225Z,7.13
2023-02-03T09:10:04.738Z,6.47
2023-02-03T09:12:31.240Z,8.07
2023-02-03T09:14:57.840Z,7.33
2023-02-03T09:17:24.197Z,7.20
2023-02-03T09:19:50.631Z,6.90
2023-02-03T09:22:17.094Z,7.30
2023-02-03T09:24:43.545Z,6.77
2023-02-03T09:27:10.053Z,7.57
2023-02-03T09:29:36.483Z,7.33
2023-02-03T09:32:07.800Z,6.93
2023-02-03T09:34:34.306Z,7.03
2023-02-03T09:37:00.719Z,7.13
2023-02-03T09:39:27.126Z,6.83
2023-02-03T09:42:01.119Z,8.13
2023-02-03T09:44:34.074Z,8.73
2023-02-03T09:47:02.736Z,7.20
2023-02-03T09:49:32.078Z,7.23
2023-02-03T09:52:03.963Z,9.03
2023-02-03T09:54:43.817Z,10.17
2023-02-03T09:57:22.098Z,7.77
2023-02-03T09:59:48.967Z,6.93
2023-02-03T10:02:22.716Z,7.07
2023-02-03T10:05:05.048Z,7.93
2023-02-03T10:07:41.718Z,8.13
2023-02-03T10:10:27.373Z,9.07
2023-02-03T10:13:12.730Z,8.10
2023-02-03T10:15:42.273Z,8.50
2023-02-03T10:18:12.885Z,9.07
2023-02-03T10:20:42.614Z,8.83
2023-02-03T10:23:17.435Z,7.53
2023-02-03T10:25:57.914Z,8.90
2023-02-03T10:28:26.860Z,8.10
2023-02-03T10:30:57.696Z,8.63
2023-02-03T10:33:34.536Z,7.80
2023-02-03T10:36:04.191Z,7.50
2023-02-03T10:38:45.869Z,7.83
2023-02-03T10:41:12.778Z,9.17
2023-02-03T10:43:48.182Z,7.87
2023-02-03T10:46:15.327Z,7.87
2023-02-03T10:48:41.836Z,7.67
2023-02-03T10:51:24.646Z,8.73
2023-02-03T10:53:53.754Z,8.33
2023-02-03T10:56:29.144Z,7.87
2023-02-03T10:58:58.747Z,8.23
2023-02-03T11:01:44.917Z,9.50
2023-02-03T11:04:25.088Z,7.77
2023-02-03T11:07:07.080Z,8.50
2023-02-03T11:09:35.171Z,8.90
2023-02-03T11:12:21.969Z,8.37
2023-02-03T11:14:49.782Z,8.23
2023-02-03T11:17:16.243Z,7.73
2023-02-03T11:19:44.501Z,8.60
2023-02-03T11:22:11.447Z,8.03
2023-02-03T11:24:39.488Z,8.37
2023-02-03T11:27:16.335Z,8.30
2023-02-03T11:29:47.575Z,6.83
2023-02-03T11:32:19.820Z,6.83
2023-02-03T11:34:47.541Z,7.27
2023-02-03T11:37:33.664Z,6.33
2023-02-03T11:40:11.032Z,8.13
2023-02-03T11:42:42.167Z,7.53
2023-02-03T11:45:24.909Z,6.50
2023-02-03T11:47:54.399Z,5.93
2023-02-03T11:50:39.601Z,6.90
2023-02-03T11:53:21.331Z,6.73
2023-02-03T11:56:07.571Z,7.03
2023-02-03T11:58:39.612Z,8.70
2023-02-03T12:01:15.162Z,6.50
2023-02-03T12:04:00.711Z,7.47
2023-02-03T12:06:39.278Z,7.70
2023-02-03T12:09:20.834Z,7.93
2023-02-03T12:11:47.227Z,7.80
2023-02-03T12:14:28.860Z,6.53
2023-02-03T12:17:07.538Z,6.63
2023-02-03T12:19:53.625Z,7.17
2023-02-03T12:22:27.003Z,6.70
2023-02-03T12:24:56.446Z,7.27
2023-02-03T12:27:23.098Z,7.87
2023-02-03T12:29:55.087Z,6.30
2023-02-03T12:32:48.066Z,7.47
2023-02-03T12:35:32.091Z,6.67
2023-02-03T12:38:12.707Z,9.73
2023-02-03T12:40:49.092Z,6.83
2023-02-03T12:43:37.559Z,7.03
2023-02-03T12:46:13.081Z,6.77
2023-02-03T12:48:44.060Z,7.53
2023-02-03T12:51:14.083Z,7.50
2023-02-03T12:53:42.359Z,7.93
2023-02-03T12:56:11.705Z,5.90
2023-02-03T12:58:40.557Z,7.80
2023-02-03T13:01:16.320Z,6.70
2023-02-03T13:03:45.745Z,6.60
2023-02-03T13:06:19.096Z,5.77
2023-02-03T13:09:13.820Z,7.43
2023-02-03T13:11:43.227Z,6.17
2023-02-03T13:14:15.673Z,6.00
2023-02-03T13:16:44.136Z,7.13
2023-02-03T13:19:18.016Z,6.80
2023-02-03T13:21:46.880Z,6.10
2023-02-03T13:24:13.346Z,7.90
2023-02-03T13:26:54.144Z,5.47
2023-02-03T13:29:39.301Z,6.07
2023-02-03T13:32:12.005Z,9.77
2023-02-03T13:34:47.453Z,5.97
2023-02-03T13:37:16.628Z,6.57
2023-02-03T13:39:52.530Z,6.40
2023-02-03T13:42:27.002Z,5.67
2023-02-03T13:44:58.504Z,6.60
2023-02-03T13:47:28.481Z,6.27
2023-02-03T13:49:56.937Z,6.03
2023-02-03T13:52:24.841Z,6.50
2023-02-03T13:54:51.659Z,6.50
2023-02-03T13:57:21.302Z,7.83
2023-02-03T13:59:48.597Z,7.70
2023-02-03T14:02:27.364Z,6.17
2023-02-03T14:04:55.414Z,5.83
2023-02-03T14:07:38.792Z,6.70
2023-02-03T14:10:09.545Z,7.10
2023-02-03T14:12:36.735Z,6.23
2023-02-03T14:15:17.557Z,6.13
2023-02-03T14:17:43.934Z,6.67
2023-02-03T14:20:25.798Z,6.97
2023-02-03T14:22:58.176Z,7.20
2023-02-03T14:25:25.629Z,5.10
2023-02-03T14:28:07.235Z,6.27
2023-02-03T14:30:33.748Z,6.07
2023-02-03T14:33:01.753Z,5.80
2023-02-03T14:35:40.253Z,5.63
2023-02-03T14:38:09.261Z,6.67
2023-02-03T14:40:56.218Z,6.57
2023-02-03T14:43:25.603Z,7.13
2023-02-03T14:46:10.914Z,5.90
2023-02-03T14:48:56.395Z,11.77
2023-02-03T14:51:47.065Z,6.40
2023-02-03T14:54:16.798Z,7.50
2023-02-03T14:57:06.684Z,7.43
2023-02-03T14:59:43.526Z,6.33
2023-02-03T15:02:12.319Z,7.13
2023-02-03T15:04:38.845Z,7.03
2023-02-03T15:07:05.344Z,8.23
2023-02-03T15:09:34.820Z,5.93
2023-02-03T15:12:01.291Z,5.97
2023-02-03T15:14:28.700Z,6.67
2023-02-03T15:16:56.775Z,7.73
2023-02-03T15:19:25.019Z,7.93
2023-02-03T15:21:51.516Z,7.10
2023-02-03T15:24:21.560Z,6.50
2023-02-03T15:26:48.894Z,6.87
2023-02-03T15:29:22.731Z,8.00
2023-02-03T15:31:50.947Z,10.67
2023-02-03T15:34:17.464Z,7.10
2023-02-03T15:36:45.927Z,7.87
2023-02-03T15:39:22.411Z,6.90
2023-02-03T15:41:53.624Z,7.67
2023-02-03T15:44:39.417Z,7.40
2023-02-03T15:47:07.523Z,8.37
2023-02-03T15:49:37.282Z,7.37
2023-02-03T15:52:08.632Z,7.27
2023-02-03T15:54:54.123Z,6.50
2023-02-03T15:57:23.843Z,7.17
2023-02-03T15:59:55.315Z,6.93
2023-02-03T16:02:21.770Z,8.17
2023-02-03T16:04:50.306Z,8.33
2023-02-03T16:07:38.506Z,7.33
2023-02-03T16:10:05.808Z,7.07
2023-02-03T16:12:33.603Z,7.40
2023-02-03T16:15:01.655Z,7.47
2023-02-03T16:17:28.152Z,6.30
2023-02-03T16:20:14.914Z,6.80
2023-02-03T16:22:42.965Z,6.13
2023-02-03T16:25:18.942Z,6.30
2023-02-03T16:27:46.322Z,8.10
2023-02-03T16:30:31.442Z,6.67
2023-02-03T16:33:21.633Z,6.90
2023-02-03T16:36:06.620Z,8.27
2023-02-03T16:38:51.565Z,7.67
2023-02-03T16:41:36.580Z,7.27
2023-02-03T16:44:21.821Z,7.83
2023-02-03T16:47:07.318Z,9.50
2023-02-03T16:49:52.443Z,7.50
2023-02-03T16:52:18.851Z,8.43
2023-02-03T16:54:45.409Z,7.63
2023-02-03T16:57:11.881Z,6.67
2023-02-03T16:59:38.364Z,8.27
2023-02-03T17:02:05.054Z,7.40
2023-02-03T17:04:31.563Z,7.00
2023-02-03T17:06:57.940Z,7.77
2023-02-03T17:09:25.109Z,7.30
2023-02-03T17:11:53.468Z,7.13
2023-02-03T17:14:20.022Z,8.00
2023-02-03T17:16:46.525Z,6.90
2023-02-03T17:19:13.249Z,8.20
2023-02-03T17:21:39.776Z,8.03
2023-02-03T17:24:06.703Z,8.60
2023-02-03T17:26:34.449Z,8.20
2023-02-03T17:29:03.469Z,7.60
2023-02-03T17:31:30.767Z,9.60
2023-02-03T17:33:57.882Z,8.87
2023-02-03T17:36:24.586Z,8.17
2023-02-03T17:54:56.303Z,9.33
2023-02-03T17:57:22.661Z,9.40
2023-02-03T17:59:49.079Z,11.07
2023-02-03T18:02:15.697Z,8.53
2023-02-03T18:04:44.500Z,8.60
2023-02-03T18:07:10.896Z,8.43
2023-02-03T18:09:37.270Z,9.03
2023-02-03T18:12:03.998Z,7.87
2023-02-03T18:14:30.449Z,7.73
2023-02-03T18:16:56.977Z,9.37
2023-02-03T18:19:23.467Z,8.50
2023-02-03T18:21:49.887Z,7.47
2023-02-03T18:24:18.594Z,8.13
2023-02-03T18:26:49.676Z,7.07
2023-02-03T18:29:16.553Z,8.43
2023-02-03T18:31:44.239Z,7.03
2023-02-03T18:34:10.814Z,8.00
2023-02-03T18:36:37.341Z,6.70
2023-02-03T18:39:03.985Z,7.43
2023-02-03T18:41:30.561Z,5.83
2023-02-03T18:43:56.963Z,7.53
2023-02-03T18:46:27.825Z,7.00
2023-02-03T18:48:56.102Z,8.03
2023-02-03T18:51:23.080Z,7.80
2023-02-03T18:53:49.998Z,6.17
2023-02-03T18:56:17.869Z,6.40
2023-02-03T18:58:44.371Z,6.60
2023-02-03T19:01:18.889Z,6.30
2023-02-03T19:03:45.277Z,9.57
2023-02-03T19:06:11.852Z,23.57
2023-02-03T19:08:38.220Z,7.47
2023-02-03T19:11:04.818Z,6.80
2023-02-03T19:13:31.292Z,7.50
2023-02-03T19:15:57.720Z,7.07
2023-02-03T19:18:24.133Z,6.33
2023-02-03T19:20:50.511Z,5.67
2023-02-03T19:23:17.140Z,6.30
2023-02-03T19:25:43.724Z,5.87
2023-02-03T19:28:17.435Z,5.17
2023-02-03T19:30:46.779Z,4.80
2023-02-03T19:33:13.670Z,4.47
2023-02-03T19:35:41.200Z,4.60
2023-02-03T19:38:08.286Z,6.63
2023-02-03T19:40:35.050Z,5.83
2023-02-03T19:43:01.400Z,4.40
2023-02-03T19:45:28.223Z,4.50
2023-02-03T19:47:54.656Z,5.30
2023-02-03T19:50:21.130Z,3.97
2023-02-03T19:52:48.712Z,3.37
2023-02-03T19:55:16.232Z,3.43
2023-02-03T19:57:42.657Z,3.07
2023-02-03T20:00:09.849Z,3.30
2023-02-03T20:02:37.355Z,2.73
2023-02-03T20:05:03.751Z,2.50
2023-02-03T20:07:33.738Z,4.73
2023-02-03T20:10:01.370Z,2.57
2023-02-03T20:12:27.715Z,2.20
2023-02-03T20:14:54.462Z,2.07
2023-02-03T20:17:20.888Z,1.83
2023-02-03T20:19:47.256Z,2.10
2023-02-03T20:22:13.693Z,2.03
2023-02-03T20:24:40.074Z,2.93
2023-02-03T20:27:06.473Z,7.43
2023-02-03T20:29:32.861Z,2.40
2023-02-03T20:31:59.340Z,9.23
2023-02-03T20:34:27.486Z,11.37
2023-02-03T20:36:58.565Z,2.23
2023-02-03T20:39:24.953Z,2.43
2023-02-03T20:41:51.427Z,1.83
2023-02-03T20:44:23.871Z,2.03
2023-02-03T20:46:52.340Z,1.90
2023-02-03T20:49:19.935Z,1.60
2023-02-03T20:51:46.756Z,1.87
2023-02-03T20:54:22.350Z,1.83
2023-02-03T20:56:48.933Z,1.80
2023-02-03T20:59:16.798Z,2.10
2023-02-03T21:01:43.431Z,2.00
2023-02-03T21:04:37.467Z,2.53
2023-02-03T21:07:12.575Z,1.50
2023-02-03T21:09:39.086Z,2.80
2023-02-03T21:12:10.543Z,1.87
2023-02-03T21:14:40.453Z,2.00
2023-02-03T21:17:33.252Z,1.87
2023-02-03T21:19:59.619Z,1.37
2023-02-03T21:22:27.231Z,1.37
2023-02-03T21:24:58.018Z,1.40
2023-02-03T21:27:25.798Z,1.63
2023-02-03T21:29:55.794Z,1.73
2023-02-03T21:32:26.326Z,1.30
2023-02-03T21:34:52.856Z,1.27
2023-02-03T21:37:31.532Z,1.43
2023-02-03T21:39:58.050Z,1.57
2023-02-03T21:42:41.158Z,1.20
2023-02-03T21:45:17.081Z,1.37
2023-02-03T21:47:44.157Z,1.40
2023-02-03T21:50:31.532Z,1.80
2023-02-03T21:53:07.507Z,1.63
2023-02-03T21:55:34.154Z,1.83
2023-02-03T21:58:02.335Z,1.40
2023-02-03T22:00:43.147Z,1.97
2023-02-03T22:03:19.118Z,1.30
2023-02-03T22:05:45.927Z,1.33
2023-02-03T22:08:18.330Z,1.60
2023-02-03T22:10:45.720Z,1.60
2023-02-03T22:13:13.143Z,1.40
2023-02-03T22:15:40.130Z,1.40
2023-02-03T22:18:06.476Z,1.67
2023-02-03T22:20:32.975Z,1.60
2023-02-03T22:22:59.509Z,1.50
2023-02-03T22:25:26.211Z,1.43
2023-02-03T22:27:53.173Z,1.57
2023-02-03T22:30:20.078Z,1.23
2023-02-03T22:32:46.477Z,1.30
2023-02-03T22:35:12.952Z,1.70
2023-02-03T22:37:39.373Z,2.50
2023-02-03T22:40:06.264Z,1.57
2023-02-03T22:42:32.667Z,1.60
2023-02-03T22:44:59.080Z,1.00
2023-02-03T22:47:26.409Z,1.57
2023-02-03T22:49:52.766Z,1.40
2023-02-03T22:52:19.213Z,1.20
2023-02-03T22:54:45.699Z,1.40
2023-02-03T22:57:12.120Z,1.30
2023-02-03T22:59:38.482Z,1.17
2023-02-03T23:02:04.844Z,1.50
2023-02-03T23:04:31.264Z,1.30
2023-02-03T23:06:57.639Z,1.57
2023-02-03T23:09:23.986Z,1.37
2023-02-03T23:11:50.565Z,1.40
2023-02-03T23:14:17.020Z,1.20
2023-02-03T23:16:43.704Z,1.20
2023-02-03T23:19:10.045Z,1.17
2023-02-03T23:21:36.476Z,1.17
2023-02-03T23:24:02.900Z,1.27
2023-02-03T23:26:29.312Z,1.20
2023-02-03T23:28:55.725Z,1.00
2023-02-03T23:31:22.385Z,1.30
2023-02-03T23:34:07.468Z,1.10
2023-02-03T23:36:33.966Z,1.20
2023-02-03T23:39:00.404Z,1.10
2023-02-03T23:41:26.813Z,1.30
2023-02-03T23:43:53.257Z,1.00
2023-02-03T23:46:19.668Z,1.30
2023-02-03T23:48:46.166Z,1.40
2023-02-03T23:51:12.884Z,1.13
2023-02-03T23:53:39.219Z,1.03
2023-02-03T23:56:05.764Z,1.10
2023-02-03T23:58:32.235Z,1.00
